createdAt,value
2018-04-14T00:00:08.056Z,7.17
2018-04-14T00:02:36.696Z,7.53
2018-04-14T00:05:05.241Z,7.30
2018-04-14T00:07:33.713Z,7.67
2018-04-14T00:10:02.425Z,7.70
2018-04-14T00:12:31.315Z,9.63
2018-04-14T00:14:59.963Z,11.13
2018-04-14T00:17:28.421Z,10.30
2018-04-14T00:19:56.916Z,11.73
2018-04-14T00:22:26.048Z,12.37
2018-04-14T00:27:29.250Z,11.90
2018-04-14T00:29:58.107Z,11.83
2018-04-14T00:32:26.659Z,10.47
2018-04-14T00:34:55.383Z,9.23
2018-04-14T00:37:23.875Z,9.20
2018-04-14T00:39:52.528Z,8.30
2018-04-14T00:42:21.562Z,9.63
2018-04-14T00:44:50.485Z,10.83
2018-04-14T00:47:19.103Z,10.87
2018-04-14T00:49:47.451Z,10.93
2018-04-14T00:52:16.972Z,11.73
2018-04-14T00:54:45.516Z,13.50
2018-04-14T00:57:14.106Z,12.60
2018-04-14T00:59:42.608Z,13.67
2018-04-14T01:02:11.102Z,14.97
2018-04-14T01:04:39.554Z,14.70
2018-04-14T01:07:08.110Z,14.90
2018-04-14T01:09:36.621Z,17.80
2018-04-14T01:12:05.523Z,17.07
2018-04-14T01:14:33.943Z,18.60
2018-04-14T01:17:02.632Z,17.67
2018-04-14T01:19:31.168Z,18.60
2018-04-14T01:21:59.880Z,18.60
2018-04-14T01:24:28.412Z,17.87
2018-04-14T01:26:56.972Z,17.30
2018-04-14T01:29:25.495Z,18.07
2018-04-14T01:31:53.916Z,18.20
2018-04-14T01:34:22.410Z,20.37
2018-04-14T01:36:51.251Z,19.07
2018-04-14T01:39:19.713Z,17.07
2018-04-14T01:41:48.359Z,18.10
2018-04-14T01:44:17.086Z,17.70
2018-04-14T01:46:45.546Z,18.83
2018-04-14T01:49:14.162Z,18.20
2018-04-14T01:51:42.803Z,19.83
2018-04-14T01:54:11.311Z,17.83
2018-04-14T01:56:39.758Z,19.07
2018-04-14T01:59:08.228Z,20.20
2018-04-14T02:01:36.952Z,19.30
2018-04-14T02:04:05.626Z,20.47
2018-04-14T02:06:40.515Z,20.60
2018-04-14T02:09:09.295Z,21.23
2018-04-14T02:11:37.920Z,21.60
2018-04-14T02:14:06.894Z,21.50
2018-04-14T02:16:35.640Z,22.33
2018-04-14T02:19:04.341Z,22.80
2018-04-14T02:21:36.317Z,22.40
2018-04-14T02:24:04.795Z,21.70
2018-04-14T02:26:33.470Z,23.37
2018-04-14T02:29:02.325Z,22.63
2018-04-14T02:31:30.786Z,22.87
2018-04-14T02:35:02.634Z,25.53
2018-04-14T02:37:31.276Z,22.37
2018-04-14T02:39:59.800Z,23.60
2018-04-14T02:42:28.409Z,24.77
2018-04-14T02:44:56.880Z,25.30
2018-04-14T02:47:25.358Z,26.20
2018-04-14T02:49:53.768Z,26.83
2018-04-14T02:52:22.363Z,26.30
2018-04-14T02:54:50.986Z,26.67
2018-04-14T02:57:19.503Z,25.47
2018-04-14T02:59:47.964Z,26.80
2018-04-14T03:02:16.724Z,26.13
2018-04-14T03:04:45.331Z,28.73
2018-04-14T03:07:14.073Z,29.33
2018-04-14T03:09:42.676Z,28.60
2018-04-14T03:12:11.616Z,29.07
2018-04-14T03:14:40.280Z,29.47
2018-04-14T03:17:08.959Z,23.77
2018-04-14T03:19:37.543Z,25.37
2018-04-14T03:23:09.224Z,24.70
2018-04-14T03:25:37.788Z,22.73
2018-04-14T03:28:06.451Z,27.57
2018-04-14T03:30:35.292Z,29.10
2018-04-14T03:33:03.724Z,30.50
2018-04-14T03:35:32.225Z,33.03
2018-04-14T03:38:00.721Z,30.53
2018-04-14T03:40:29.659Z,31.30
2018-04-14T03:42:58.423Z,32.00
2018-04-14T03:45:26.978Z,31.80
2018-04-14T03:47:55.666Z,34.20
2018-04-14T03:50:24.159Z,33.60
2018-04-14T03:52:52.626Z,33.50
2018-04-14T03:55:21.414Z,32.60
2018-04-14T03:57:49.985Z,32.73
2018-04-14T04:03:14.051Z,31.03
2018-04-14T04:05:42.572Z,23.80
2018-04-14T04:08:10.961Z,24.53
2018-04-14T04:10:39.307Z,26.17
2018-04-14T04:13:07.639Z,25.60
2018-04-14T04:15:35.977Z,23.47
2018-04-14T04:18:04.263Z,24.17
2018-04-14T04:20:41.546Z,24.07
2018-04-14T04:25:22.134Z,26.57
2018-04-14T04:27:50.605Z,27.57
2018-04-14T04:30:18.964Z,33.07
2018-04-14T04:32:47.412Z,33.47
2018-04-14T04:35:16.249Z,34.07
2018-04-14T04:37:44.580Z,35.53
2018-04-14T04:40:12.967Z,37.23
2018-04-14T04:42:41.285Z,40.27
2018-04-14T04:45:09.608Z,40.37
2018-04-14T04:47:37.918Z,43.23
2018-04-14T04:50:06.239Z,47.53
2018-04-14T04:52:34.713Z,48.80
2018-04-14T04:55:03.079Z,46.10
2018-04-14T04:57:31.412Z,47.50
2018-04-14T05:00:00.016Z,46.63
2018-04-14T05:02:28.339Z,47.63
2018-04-14T05:04:56.627Z,45.87
2018-04-14T05:07:28.005Z,50.67
2018-04-14T05:09:56.306Z,51.20
2018-04-14T05:12:24.636Z,51.17
2018-04-14T05:14:53.039Z,50.23
2018-04-14T05:17:21.556Z,53.60
2018-04-14T05:19:49.980Z,53.67
2018-04-14T05:22:18.294Z,49.20
2018-04-14T05:24:46.743Z,47.40
2018-04-14T05:27:15.147Z,46.20
2018-04-14T05:29:43.680Z,46.67
2018-04-14T05:32:12.004Z,43.77
2018-04-14T05:34:40.452Z,40.90
2018-04-14T05:37:08.785Z,42.93
2018-04-14T05:39:37.240Z,40.67
2018-04-14T05:42:05.748Z,40.90
2018-04-14T05:44:34.077Z,40.13
2018-04-14T05:47:02.495Z,40.70
2018-04-14T05:49:30.979Z,41.00
2018-04-14T05:51:59.356Z,40.90
2018-04-14T05:54:27.644Z,38.57
2018-04-14T05:56:55.987Z,43.07
2018-04-14T05:59:24.287Z,40.60
2018-04-14T06:01:52.768Z,42.67
2018-04-14T06:04:21.081Z,40.10
2018-04-14T06:06:49.515Z,39.17
2018-04-14T06:09:17.844Z,43.43
2018-04-14T06:11:46.172Z,41.20
2018-04-14T06:14:14.576Z,40.70
2018-04-14T06:16:42.949Z,38.43
2018-04-14T06:19:11.289Z,39.60
2018-04-14T06:21:39.707Z,42.10
2018-04-14T06:24:08.144Z,43.17
2018-04-14T06:26:36.455Z,43.80
2018-04-14T06:29:04.770Z,41.67
2018-04-14T06:31:33.092Z,43.37
2018-04-14T06:34:01.428Z,43.40
2018-04-14T06:36:29.760Z,46.77
2018-04-14T06:38:58.078Z,46.70
2018-04-14T06:41:26.400Z,46.80
2018-04-14T06:43:54.720Z,48.73
2018-04-14T06:46:23.100Z,50.83
2018-04-14T06:48:51.652Z,52.97
2018-04-14T06:51:20.555Z,52.77
2018-04-14T06:53:48.976Z,55.70
2018-04-14T06:56:17.341Z,56.87
2018-04-14T06:58:51.242Z,57.17
2018-04-14T07:01:21.982Z,54.40
2018-04-14T07:03:50.920Z,57.47
2018-04-14T07:06:19.980Z,59.17
2018-04-14T07:08:48.330Z,59.47
2018-04-14T07:11:17.229Z,56.43
2018-04-14T07:13:45.547Z,60.57
2018-04-14T07:16:13.967Z,57.90
2018-04-14T07:18:42.404Z,58.57
2018-04-14T07:21:10.944Z,61.20
2018-04-14T07:23:39.259Z,60.27
2018-04-14T07:26:07.749Z,60.47
2018-04-14T07:28:36.167Z,57.00
2018-04-14T07:31:04.569Z,59.10
2018-04-14T07:33:32.917Z,60.00
2018-04-14T07:36:01.439Z,59.43
2018-04-14T07:38:29.753Z,59.80
2018-04-14T07:40:59.065Z,59.37
2018-04-14T07:43:27.774Z,63.13
2018-04-14T07:45:56.128Z,65.60
2018-04-14T07:48:24.774Z,63.03
2018-04-14T07:50:53.803Z,64.87
2018-04-14T07:53:22.079Z,65.27
2018-04-14T07:55:50.411Z,65.77
2018-04-14T07:58:18.747Z,64.57
2018-04-14T08:00:47.139Z,65.83
2018-04-14T08:03:15.819Z,67.50
2018-04-14T08:05:44.141Z,67.20
2018-04-14T08:08:12.666Z,67.60
2018-04-14T08:10:41.056Z,68.03
2018-04-14T08:13:09.488Z,66.33
2018-04-14T08:15:37.936Z,68.07
2018-04-14T08:18:06.268Z,65.20
2018-04-14T08:20:34.575Z,67.00
2018-04-14T08:23:02.875Z,64.00
2018-04-14T08:25:31.992Z,67.13
2018-04-14T08:28:00.384Z,62.10
2018-04-14T08:30:28.777Z,61.30
2018-04-14T08:32:57.192Z,65.40
2018-04-14T08:35:25.697Z,63.70
2018-04-14T08:37:54.072Z,62.30
2018-04-14T08:40:22.392Z,62.27
2018-04-14T08:42:50.792Z,59.17
2018-04-14T08:45:19.456Z,57.57
2018-04-14T08:47:47.933Z,57.50
2018-04-14T08:50:16.447Z,57.63
2018-04-14T08:52:44.737Z,58.17
2018-04-14T08:55:13.388Z,54.37
2018-04-14T08:57:41.697Z,54.20
2018-04-14T09:00:10.087Z,53.47
2018-04-14T09:02:38.431Z,53.40
2018-04-14T09:05:06.793Z,50.70
2018-04-14T09:07:35.101Z,53.37
2018-04-14T09:10:03.467Z,49.63
2018-04-14T09:12:31.832Z,50.00
2018-04-14T09:15:03.315Z,48.20
2018-04-14T09:17:32.217Z,48.17
2018-04-14T09:20:00.779Z,47.63
2018-04-14T09:22:29.199Z,45.90
2018-04-14T09:24:57.704Z,45.87
2018-04-14T09:27:26.022Z,45.10
2018-04-14T09:29:54.296Z,45.30
2018-04-14T09:32:22.673Z,43.47
2018-04-14T09:34:54.548Z,43.03
2018-04-14T09:37:25.740Z,40.67
2018-04-14T09:39:55.127Z,40.10
2018-04-14T09:42:26.500Z,38.43
2018-04-14T09:44:54.794Z,36.73
2018-04-14T09:47:23.218Z,33.80
2018-04-14T09:49:51.833Z,36.30
2018-04-14T09:52:20.167Z,34.90
2018-04-14T09:54:49.158Z,34.40
2018-04-14T09:57:17.540Z,33.53
2018-04-14T09:59:45.827Z,31.93
2018-04-14T10:02:14.211Z,32.77
2018-04-14T10:04:42.521Z,31.53
2018-04-14T10:07:11.954Z,32.57
2018-04-14T10:09:40.297Z,31.10
2018-04-14T10:12:08.615Z,31.63
2018-04-14T10:14:36.978Z,32.70
2018-04-14T10:17:05.474Z,31.10
2018-04-14T10:19:34.859Z,30.33
2018-04-14T10:22:03.332Z,31.13
2018-04-14T10:24:31.662Z,30.47
2018-04-14T10:27:00.067Z,29.43
2018-04-14T10:29:28.405Z,29.90
2018-04-14T10:31:56.729Z,28.47
2018-04-14T10:34:25.771Z,28.63
2018-04-14T10:36:54.444Z,26.83
2018-04-14T10:39:23.734Z,28.37
2018-04-14T10:41:52.641Z,29.50
2018-04-14T10:44:21.005Z,28.80
2018-04-14T10:46:49.339Z,31.07
2018-04-14T10:49:17.832Z,29.27
2018-04-14T10:51:46.607Z,28.97
2018-04-14T10:54:16.776Z,28.43
2018-04-14T10:56:45.235Z,27.60
2018-04-14T10:59:13.537Z,26.90
2018-04-14T11:01:42.027Z,28.20
2018-04-14T11:04:10.327Z,27.00
2018-04-14T11:06:38.977Z,27.97
2018-04-14T11:09:07.512Z,26.20
2018-04-14T11:11:35.863Z,26.30
2018-04-14T11:14:04.207Z,27.77
2018-04-14T11:16:32.532Z,26.90
2018-04-14T11:19:00.864Z,28.27
2018-04-14T11:21:29.336Z,26.43
2018-04-14T11:23:57.740Z,27.67
2018-04-14T11:26:26.175Z,26.47
2018-04-14T11:28:54.461Z,25.50
2018-04-14T11:31:22.896Z,25.63
2018-04-14T11:33:51.179Z,25.43
2018-04-14T11:36:19.599Z,26.40
2018-04-14T11:38:48.179Z,26.03
2018-04-14T11:41:16.545Z,26.63
2018-04-14T11:43:44.888Z,26.27
2018-04-14T11:46:13.268Z,26.10
2018-04-14T11:48:41.779Z,27.23
2018-04-14T11:51:10.167Z,27.83
2018-04-14T11:53:38.565Z,28.00
2018-04-14T11:56:06.931Z,28.87
2018-04-14T11:58:35.307Z,29.03
2018-04-14T12:01:03.640Z,30.97
2018-04-14T12:03:32.080Z,31.13
2018-04-14T12:06:00.509Z,32.60
2018-04-14T12:08:29.132Z,34.83
2018-04-14T12:10:57.653Z,36.40
2018-04-14T12:13:26.251Z,37.93
2018-04-14T12:15:54.694Z,40.17
2018-04-14T12:18:23.182Z,39.50
2018-04-14T12:20:51.643Z,40.87
2018-04-14T12:23:20.323Z,41.30
2018-04-14T12:25:48.631Z,43.90
2018-04-14T12:28:16.941Z,41.23
2018-04-14T12:30:45.296Z,42.30
2018-04-14T12:33:13.843Z,43.60
2018-04-14T12:35:42.363Z,40.63
2018-04-14T12:38:10.807Z,40.50
2018-04-14T12:40:39.195Z,40.83
2018-04-14T12:43:07.616Z,40.60
2018-04-14T12:45:35.924Z,42.10
2018-04-14T12:48:04.296Z,41.73
2018-04-14T12:50:32.608Z,42.50
2018-04-14T12:53:01.097Z,42.67
2018-04-14T12:55:29.511Z,40.40
2018-04-14T12:57:57.860Z,39.60
2018-04-14T13:00:26.344Z,39.60
2018-04-14T13:02:54.764Z,35.13
2018-04-14T13:05:23.166Z,36.30
2018-04-14T13:07:51.535Z,38.27
2018-04-14T13:10:19.914Z,36.37
2018-04-14T13:12:48.553Z,35.73
2018-04-14T13:15:17.004Z,37.27
2018-04-14T13:17:45.560Z,35.30
2018-04-14T13:20:13.881Z,34.70
2018-04-14T13:22:42.183Z,34.13
2018-04-14T13:25:10.573Z,34.00
2018-04-14T13:27:38.898Z,34.50
2018-04-14T13:30:07.447Z,32.30
2018-04-14T13:32:35.761Z,31.00
2018-04-14T13:35:04.110Z,27.80
2018-04-14T13:37:32.534Z,29.30
2018-04-14T13:40:01.052Z,30.20
2018-04-14T13:42:29.460Z,28.20
2018-04-14T13:44:57.803Z,28.90
2018-04-14T13:47:26.210Z,27.03
2018-04-14T13:49:54.531Z,27.70
2018-04-14T13:52:22.894Z,26.17
2018-04-14T13:54:51.524Z,27.27
2018-04-14T13:57:19.995Z,25.97
2018-04-14T13:59:48.358Z,24.70
2018-04-14T14:02:16.729Z,25.63
2018-04-14T14:04:45.744Z,24.50
2018-04-14T14:07:14.117Z,25.23
2018-04-14T14:09:42.407Z,24.80
2018-04-14T14:12:10.763Z,23.20
2018-04-14T14:14:39.052Z,26.10
2018-04-14T14:17:07.598Z,24.13
2018-04-14T14:19:36.078Z,23.63
2018-04-14T14:22:04.620Z,24.37
2018-04-14T14:24:32.915Z,24.30
2018-04-14T14:27:01.312Z,24.13
2018-04-14T14:29:29.709Z,24.17
2018-04-14T14:31:58.076Z,24.77
2018-04-14T14:34:26.356Z,27.70
2018-04-14T14:36:54.822Z,27.70
2018-04-14T14:39:23.112Z,28.07
2018-04-14T14:41:51.751Z,28.70
2018-04-14T14:44:20.264Z,28.83
2018-04-14T14:46:48.757Z,35.80
2018-04-14T14:49:17.111Z,38.53
2018-04-14T14:51:45.739Z,40.43
2018-04-14T14:54:15.968Z,38.07
2018-04-14T14:56:44.468Z,37.67
2018-04-14T14:59:12.886Z,39.77
2018-04-14T15:01:42.492Z,39.53
2018-04-14T15:04:11.200Z,38.60
2018-04-14T15:06:40.125Z,36.97
2018-04-14T15:09:08.540Z,37.70
2018-04-14T15:11:36.895Z,38.23
2018-04-14T15:14:05.227Z,36.60
2018-04-14T15:16:33.620Z,36.27
2018-04-14T15:19:01.906Z,38.10
2018-04-14T15:21:30.351Z,34.80
2018-04-14T15:23:58.805Z,35.50
2018-04-14T15:26:27.149Z,33.10
2018-04-14T15:28:55.443Z,34.43
2018-04-14T15:31:23.908Z,33.70
2018-04-14T15:33:52.307Z,32.77
2018-04-14T15:36:21.716Z,33.10
2018-04-14T15:38:50.202Z,33.10
2018-04-14T15:41:18.523Z,32.70
2018-04-14T15:43:46.846Z,32.43
2018-04-14T15:46:15.199Z,29.87
2018-04-14T15:48:44.766Z,29.97
2018-04-14T15:51:14.384Z,28.70
2018-04-14T15:53:43.560Z,31.30
2018-04-14T15:56:12.366Z,28.20
2018-04-14T15:58:40.663Z,28.53
2018-04-14T16:01:08.980Z,31.37
2018-04-14T16:03:44.723Z,30.73
2018-04-14T16:06:07.083Z,30.83
2018-04-14T16:08:35.400Z,32.40
2018-04-14T16:11:03.872Z,32.63
2018-04-14T16:13:32.323Z,32.93
2018-04-14T16:16:00.916Z,33.93
2018-04-14T16:18:29.276Z,35.30
2018-04-14T16:21:04.267Z,32.50
2018-04-14T16:23:32.597Z,35.30
2018-04-14T16:26:01.090Z,36.40
2018-04-14T16:28:29.915Z,34.80
2018-04-14T16:30:58.231Z,31.90
2018-04-14T16:33:26.563Z,33.73
2018-04-14T16:35:54.897Z,32.20
2018-04-14T16:38:23.313Z,32.30
2018-04-14T16:40:51.656Z,31.60
2018-04-14T16:43:20.048Z,31.70
2018-04-14T16:45:48.412Z,30.60
2018-04-14T16:48:16.789Z,29.53
2018-04-14T16:50:45.248Z,29.53
2018-04-14T16:53:13.576Z,30.10
2018-04-14T16:55:42.068Z,28.07
2018-04-14T16:58:10.355Z,26.73
2018-04-14T17:00:38.827Z,28.87
2018-04-14T17:03:07.400Z,29.10
2018-04-14T17:05:35.843Z,29.20
2018-04-14T17:08:04.227Z,28.00
2018-04-14T17:10:32.591Z,27.10
2018-04-14T17:13:00.879Z,26.43
2018-04-14T17:15:29.201Z,28.43
2018-04-14T17:17:57.487Z,27.93
2018-04-14T17:20:25.891Z,26.70
2018-04-14T17:22:54.177Z,25.93
2018-04-14T17:25:22.536Z,27.03
2018-04-14T17:27:51.164Z,29.23
2018-04-14T17:30:19.483Z,27.23
2018-04-14T17:32:47.821Z,25.97
2018-04-14T17:35:16.156Z,26.20
2018-04-14T17:37:44.451Z,25.87
2018-04-14T17:40:12.843Z,25.47
2018-04-14T17:42:41.335Z,26.70
2018-04-14T17:45:09.668Z,27.83
2018-04-14T17:47:38.015Z,28.07
2018-04-14T17:50:06.392Z,28.90
2018-04-14T17:52:34.939Z,24.10
2018-04-14T17:55:05.091Z,24.30
2018-04-14T17:57:33.467Z,23.60
2018-04-14T18:00:01.767Z,22.97
2018-04-14T18:02:30.121Z,25.60
2018-04-14T18:05:04.083Z,27.23
2018-04-14T18:07:33.048Z,27.47
2018-04-14T18:10:01.315Z,25.97
2018-04-14T18:12:29.680Z,28.03
2018-04-14T18:14:57.971Z,32.77
2018-04-14T18:17:26.623Z,36.70
2018-04-14T18:19:54.915Z,39.30
2018-04-14T18:22:24.433Z,45.17
2018-04-14T18:24:52.823Z,31.87
2018-04-14T18:27:21.160Z,40.37
2018-04-14T18:29:49.447Z,40.03
2018-04-14T18:32:17.781Z,42.40
2018-04-14T18:34:46.208Z,48.03
2018-04-14T18:37:14.903Z,55.73
2018-04-14T18:39:44.250Z,49.10
2018-04-14T18:42:12.923Z,48.03
2018-04-14T18:44:41.267Z,44.00
2018-04-14T18:47:10.493Z,43.77
2018-04-14T18:49:39.032Z,43.57
2018-04-14T18:52:08.267Z,43.10
2018-04-14T18:54:36.738Z,44.87
2018-04-14T18:57:05.113Z,42.07
2018-04-14T18:59:33.431Z,45.30
2018-04-14T19:02:01.815Z,43.23
2018-04-14T19:04:30.112Z,42.57
2018-04-14T19:06:58.520Z,41.20
2018-04-14T19:09:26.991Z,43.80
2018-04-14T19:11:55.355Z,41.70
2018-04-14T19:14:23.716Z,40.70
2018-04-14T19:16:52.230Z,40.70
2018-04-14T19:19:20.723Z,40.50
2018-04-14T19:21:49.084Z,39.67
2018-04-14T19:24:17.448Z,38.00
2018-04-14T19:26:45.973Z,38.00
2018-04-14T19:29:14.340Z,36.87
2018-04-14T19:31:42.689Z,39.03
2018-04-14T19:34:10.978Z,37.70
2018-04-14T19:36:39.347Z,36.90
2018-04-14T19:39:07.628Z,34.93
2018-04-14T19:41:36.032Z,36.00
2018-04-14T19:44:04.346Z,33.90
2018-04-14T19:46:32.959Z,37.70
2018-04-14T19:49:01.267Z,33.80
2018-04-14T19:51:29.642Z,38.50
2018-04-14T19:53:59.896Z,39.77
2018-04-14T19:56:30.348Z,36.90
2018-04-14T19:58:58.889Z,36.70
2018-04-14T20:01:27.340Z,40.77
2018-04-14T20:03:55.787Z,43.77
2018-04-14T20:06:24.235Z,38.37
2018-04-14T20:08:52.559Z,34.70
2018-04-14T20:11:21.999Z,38.20
2018-04-14T20:13:50.339Z,37.07
2018-04-14T20:16:18.839Z,37.70
2018-04-14T20:18:47.339Z,38.60
2018-04-14T20:21:15.707Z,40.77
2018-04-14T20:23:44.406Z,48.57
2018-04-14T20:26:12.892Z,45.70
2018-04-14T20:28:41.303Z,47.10
2018-04-14T20:31:09.733Z,39.90
2018-04-14T20:33:38.031Z,42.10
2018-04-14T20:36:06.425Z,41.23
2018-04-14T20:38:34.773Z,48.67
2018-04-14T20:41:03.125Z,45.17
2018-04-14T20:43:31.979Z,51.30
2018-04-14T20:46:00.308Z,42.73
2018-04-14T20:48:28.663Z,47.73
2018-04-14T20:50:57.006Z,47.20
2018-04-14T20:53:25.369Z,46.10
2018-04-14T20:55:53.784Z,46.50
2018-04-14T20:58:22.160Z,46.30
2018-04-14T21:00:50.487Z,53.30
2018-04-14T21:03:18.825Z,48.67
2018-04-14T21:05:47.355Z,46.80
2018-04-14T21:08:15.703Z,49.03
2018-04-14T21:10:44.114Z,43.73
2018-04-14T21:13:12.502Z,47.47
2018-04-14T21:15:40.851Z,50.27
2018-04-14T21:18:09.195Z,47.23
2018-04-14T21:20:37.531Z,50.67
2018-04-14T21:23:05.919Z,49.30
2018-04-14T21:25:35.817Z,45.97
2018-04-14T21:28:06.449Z,46.67
2018-04-14T21:30:37.420Z,49.10
2018-04-14T21:33:05.931Z,48.80
2018-04-14T21:35:35.469Z,52.63
2018-04-14T21:38:04.536Z,50.10
2018-04-14T21:40:32.849Z,52.00
2018-04-14T21:43:01.505Z,55.37
2018-04-14T21:45:30.183Z,53.50
2018-04-14T21:48:00.503Z,44.20
2018-04-14T21:50:29.287Z,45.57
2018-04-14T21:53:00.788Z,45.27
2018-04-14T21:55:31.212Z,49.03
2018-04-14T21:57:59.880Z,49.37
2018-04-14T22:00:28.331Z,51.43
2018-04-14T22:02:57.398Z,55.23
2018-04-14T22:05:26.328Z,45.50
2018-04-14T22:07:54.690Z,50.30
2018-04-14T22:10:26.069Z,49.70
2018-04-14T22:12:57.724Z,49.27
2018-04-14T22:15:26.171Z,49.00
2018-04-14T22:17:54.660Z,50.00
2018-04-14T22:20:23.041Z,54.03
2018-04-14T22:22:51.534Z,52.30
2018-04-14T22:25:19.950Z,54.93
2018-04-14T22:27:48.330Z,55.63
2018-04-14T22:30:16.832Z,52.87
2018-04-14T22:32:45.242Z,48.60
2018-04-14T22:35:13.649Z,47.20
2018-04-14T22:37:42.066Z,49.53
2018-04-14T22:40:10.416Z,50.47
2018-04-14T22:42:38.785Z,50.87
2018-04-14T22:45:07.192Z,55.00
2018-04-14T22:47:35.540Z,46.47
2018-04-14T22:50:03.876Z,48.50
2018-04-14T22:52:32.185Z,49.53
2018-04-14T22:55:00.495Z,46.33
2018-04-14T22:57:59.964Z,44.53
2018-04-14T23:00:28.636Z,53.57
2018-04-14T23:02:57.226Z,52.00
2018-04-14T23:05:25.588Z,53.43
2018-04-14T23:07:53.941Z,55.27
2018-04-14T23:10:22.572Z,50.30
2018-04-14T23:12:50.998Z,49.03
2018-04-14T23:15:19.368Z,48.57
2018-04-14T23:17:47.669Z,49.77
2018-04-14T23:20:16.296Z,48.20
2018-04-14T23:22:44.588Z,50.17
2018-04-14T23:25:13.007Z,49.20
2018-04-14T23:27:41.380Z,46.57
2018-04-14T23:30:10.125Z,50.30
2018-04-14T23:32:38.503Z,55.57
2018-04-14T23:35:06.920Z,51.73
2018-04-14T23:37:35.342Z,46.77
2018-04-14T23:40:03.892Z,50.97
2018-04-14T23:42:32.287Z,60.67
2018-04-14T23:45:00.632Z,54.17
2018-04-14T23:47:29.356Z,51.10
2018-04-14T23:49:57.691Z,59.20
2018-04-14T23:52:26.472Z,62.87
2018-04-14T23:54:54.871Z,52.60
2018-04-14T23:57:23.448Z,50.53
2018-04-14T23:59:51.805Z,52.17
